Loves Park, Illinois
Current Conditions -  °F | °C
As of 7:54 PM on Monday 24 Nov 2014 (Local Time) from KRFD Reporting Station
Light Snow Light Snow  
Wind Chill: 10°   Ceiling: 1800
Heat Index: 24°   Visibility: 4mi
Dew Point: 18°   Wind: 18mph
Humidity: 77%   Direction: 270°W
Pressure: 29.73"   Gusts: 25mph
Location:  42.32°N, 89.06°W
Report Text: KRFD 250154Z 27016G22KT 4SM -SN OVC018 M04/M08 A2973 RMK AO2 SNB39 SLP074 PRESENT WX DRSN P0000 T10441078
Loading
Personal Weather Stations






























Interactive Weather Map New forecast layout! Learn more

10-Day Weather Forecast

Advertisements
Track Severe Weather on mobile